Time;durP1;ratioP1;P1;durP2;ratioP2;P2;SDS_P1;SDS_P2;PMS_P1;PMS_P2;Temp;Humidity;BMP_temperature;BMP_pressure;BME280_temperature;BME280_humidity;BME280_pressure;Samples;Min_cycle;Max_cycle;Signal;HPM_P1;HPM_P2
2023/09/07 00:01:15;;;;;;;5.78;5.18;;;;;;;;;;5124737;27;20494;-58
2023/09/07 00:03:42;;;;;;;6.72;5.35;;;;;;;;;;5145338;27;20807;-61
2023/09/07 00:06:08;;;;;;;6.63;5.30;;;;;;;;;;5145578;27;20454;-59
2023/09/07 00:08:35;;;;;;;6.72;5.40;;;;;;;;;;5145114;27;20047;-54
2023/09/07 00:11:05;;;;;;;8.35;5.03;;;;;;;;;;5145708;27;20051;-59
2023/09/07 00:13:32;;;;;;;5.32;4.82;;;;;;;;;;5135567;27;20056;-56
2023/09/07 00:16:00;;;;;;;5.20;4.70;;;;;;;;;;5118050;27;20048;-59
2023/09/07 00:18:27;;;;;;;6.47;4.57;;;;;;;;;;5110519;27;20137;-59
2023/09/07 00:20:54;;;;;;;13.75;4.95;;;;;;;;;;5122494;27;20563;-60
2023/09/07 00:23:21;;;;;;;6.35;4.78;;;;;;;;;;5124170;27;20052;-58
2023/09/07 00:25:47;;;;;;;6.20;4.70;;;;;;;;;;5124031;27;20139;-57
2023/09/07 00:28:14;;;;;;;6.03;4.60;;;;;;;;;;5123563;27;20142;-57
2023/09/07 00:30:41;;;;;;;8.25;5.82;;;;;;;;;;5120759;27;20051;-59
2023/09/07 00:33:08;;;;;;;8.98;4.97;;;;;;;;;;5103633;27;20048;-58
2023/09/07 00:35:35;;;;;;;5.93;4.53;;;;;;;;;;5104239;28;20551;-58
2023/09/07 00:38:01;;;;;;;8.77;4.97;;;;;;;;;;5108391;27;20063;-58
2023/09/07 00:40:28;;;;;;;4.72;3.90;;;;;;;;;;5124093;27;20052;-58
2023/09/07 00:42:55;;;;;;;7.75;4.70;;;;;;;;;;5123461;27;20521;-57
2023/09/07 00:45:21;;;;;;;5.90;4.93;;;;;;;;;;5123202;27;20080;-59
2023/09/07 00:47:48;;;;;;;7.68;5.13;;;;;;;;;;5124444;27;20104;-57
2023/09/07 00:50:16;;;;;;;7.53;4.95;;;;;;;;;;5145065;27;20122;-58
2023/09/07 00:52:43;;;;;;;5.63;4.63;;;;;;;;;;5118402;27;20056;-59
2023/09/07 00:55:10;;;;;;;5.53;4.82;;;;;;;;;;5085205;28;20075;-58
2023/09/07 00:57:37;;;;;;;7.40;4.75;;;;;;;;;;5132215;27;20062;-57
2023/09/07 01:00:06;;;;;;;7.00;5.15;;;;;;;;;;5098153;27;20161;-56
2023/09/07 01:02:32;;;;;;;6.50;5.10;;;;;;;;;;5124540;27;20109;-59
2023/09/07 01:04:59;;;;;;;7.32;4.95;;;;;;;;;;5123637;27;20055;-59
2023/09/07 01:07:31;;;;;;;7.25;4.82;;;;;;;;;;5124155;27;20048;-59
2023/09/07 01:09:59;;;;;;;9.52;5.30;;;;;;;;;;5122842;27;20212;-59
2023/09/07 01:12:26;;;;;;;6.30;5.45;;;;;;;;;;5138690;27;20648;-59
2023/09/07 01:14:53;;;;;;;7.32;5.00;;;;;;;;;;5127603;27;20285;-59
2023/09/07 01:17:21;;;;;;;8.68;5.18;;;;;;;;;;5123812;27;20109;-56
2023/09/07 01:19:49;;;;;;;5.85;4.90;;;;;;;;;;5123317;27;20051;-58
2023/09/07 01:22:16;;;;;;;6.30;5.30;;;;;;;;;;5122878;27;20052;-58
2023/09/07 01:24:45;;;;;;;6.15;5.00;;;;;;;;;;5117018;27;20048;-58
2023/09/07 01:27:13;;;;;;;6.75;5.55;;;;;;;;;;5129938;27;20085;-57
2023/09/07 01:29:39;;;;;;;6.65;5.68;;;;;;;;;;5144356;27;20051;-58
2023/09/07 01:32:06;;;;;;;6.15;5.47;;;;;;;;;;5133898;27;20086;-58
2023/09/07 01:34:32;;;;;;;6.00;5.00;;;;;;;;;;5123977;27;20055;-59
2023/09/07 01:36:59;;;;;;;6.65;5.57;;;;;;;;;;5120783;27;20056;-57
2023/09/07 01:39:26;;;;;;;8.30;5.70;;;;;;;;;;5124876;27;20059;-58
2023/09/07 01:41:52;;;;;;;7.22;5.55;;;;;;;;;;5126884;27;20055;-57
2023/09/07 01:44:19;;;;;;;8.05;5.55;;;;;;;;;;5113264;27;20048;-58
2023/09/07 01:46:45;;;;;;;7.80;5.80;;;;;;;;;;5106206;28;20051;-58
2023/09/07 01:49:12;;;;;;;8.05;5.70;;;;;;;;;;5109468;27;20078;-58
2023/09/07 01:51:38;;;;;;;6.82;5.57;;;;;;;;;;5126040;27;20058;-57
2023/09/07 01:54:05;;;;;;;6.88;5.85;;;;;;;;;;5126929;27;20056;-57
2023/09/07 01:56:31;;;;;;;7.10;6.40;;;;;;;;;;5127516;27;20679;-58
2023/09/07 01:58:58;;;;;;;7.30;6.43;;;;;;;;;;5131969;27;20055;-59
2023/09/07 02:01:26;;;;;;;6.50;5.90;;;;;;;;;;5147633;27;20051;-57
2023/09/07 02:03:52;;;;;;;6.97;5.82;;;;;;;;;;5134344;27;20052;-58
2023/09/07 02:06:19;;;;;;;8.52;6.00;;;;;;;;;;5126792;27;20058;-58
2023/09/07 02:08:46;;;;;;;8.35;6.07;;;;;;;;;;5124600;27;20052;-56
2023/09/07 02:11:12;;;;;;;8.88;6.03;;;;;;;;;;5125097;27;20055;-56
2023/09/07 02:13:42;;;;;;;7.80;6.32;;;;;;;;;;5126556;27;20055;-59
2023/09/07 02:16:09;;;;;;;8.48;6.05;;;;;;;;;;5147889;27;20043;-54
2023/09/07 02:18:37;;;;;;;8.27;5.55;;;;;;;;;;5133297;27;20063;-59
2023/09/07 02:21:04;;;;;;;8.80;6.28;;;;;;;;;;5127035;27;20052;-59
2023/09/07 02:23:31;;;;;;;7.60;6.80;;;;;;;;;;5125980;27;20051;-54
2023/09/07 02:25:58;;;;;;;11.52;6.78;;;;;;;;;;5117110;27;20099;-58
2023/09/07 02:28:25;;;;;;;7.32;6.57;;;;;;;;;;5105501;28;20375;-58
2023/09/07 02:30:52;;;;;;;8.05;6.70;;;;;;;;;;5105826;28;20629;-59
2023/09/07 02:33:19;;;;;;;6.70;6.00;;;;;;;;;;5116600;27;20525;-56
2023/09/07 02:35:47;;;;;;;7.18;6.47;;;;;;;;;;5147090;27;20051;-59
2023/09/07 02:38:13;;;;;;;7.72;6.15;;;;;;;;;;5128605;27;20050;-56
2023/09/07 02:40:42;;;;;;;9.02;6.38;;;;;;;;;;5142619;27;20426;-59
2023/09/07 02:43:08;;;;;;;8.23;6.78;;;;;;;;;;5105252;28;20051;-58
2023/09/07 02:45:35;;;;;;;9.30;6.90;;;;;;;;;;5105550;27;20063;-58
2023/09/07 02:48:01;;;;;;;8.50;6.47;;;;;;;;;;5116122;27;20055;-58
2023/09/07 02:50:29;;;;;;;10.85;6.15;;;;;;;;;;5125949;27;20101;-60
2023/09/07 02:52:56;;;;;;;7.75;6.15;;;;;;;;;;5125536;27;20078;-57
2023/09/07 02:55:23;;;;;;;8.98;6.45;;;;;;;;;;5126116;27;20079;-58
2023/09/07 02:57:49;;;;;;;9.30;6.10;;;;;;;;;;5122239;27;20056;-60
2023/09/07 03:00:17;;;;;;;10.05;6.63;;;;;;;;;;5105804;27;20056;-59
2023/09/07 03:02:44;;;;;;;9.05;6.10;;;;;;;;;;5116079;27;20106;-59
2023/09/07 03:05:10;;;;;;;7.07;5.72;;;;;;;;;;5125698;27;20486;-59
2023/09/07 03:07:39;;;;;;;8.82;6.28;;;;;;;;;;5131916;27;20079;-58
2023/09/07 03:10:05;;;;;;;7.57;6.32;;;;;;;;;;5146104;27;20506;-56
2023/09/07 03:12:32;;;;;;;8.10;6.25;;;;;;;;;;5146867;27;20053;-56
2023/09/07 03:14:58;;;;;;;6.82;6.22;;;;;;;;;;5138957;27;20583;-56
2023/09/07 03:17:25;;;;;;;7.43;6.03;;;;;;;;;;5108014;27;20182;-57
2023/09/07 03:19:52;;;;;;;8.40;6.10;;;;;;;;;;5119514;27;20435;-58
2023/09/07 03:22:18;;;;;;;11.85;6.15;;;;;;;;;;5104626;28;20048;-58
2023/09/07 03:24:45;;;;;;;8.50;6.70;;;;;;;;;;5104641;28;20430;-56
2023/09/07 03:27:11;;;;;;;9.75;6.32;;;;;;;;;;5104901;28;20159;-58
2023/09/07 03:29:38;;;;;;;7.95;6.20;;;;;;;;;;5108239;27;20086;-56
2023/09/07 03:32:06;;;;;;;13.30;6.85;;;;;;;;;;5104969;28;20079;-57
2023/09/07 03:34:32;;;;;;;7.13;6.40;;;;;;;;;;5112779;27;20064;-57
2023/09/07 03:36:59;;;;;;;6.72;6.03;;;;;;;;;;5111096;27;20055;-58
2023/09/07 03:39:26;;;;;;;9.18;7.38;;;;;;;;;;5146431;27;20051;-58
2023/09/07 03:41:52;;;;;;;8.50;6.60;;;;;;;;;;5124781;27;20054;-57
2023/09/07 03:44:19;;;;;;;8.23;6.18;;;;;;;;;;5124877;27;20486;-56
2023/09/07 03:46:45;;;;;;;7.00;6.30;;;;;;;;;;5124111;27;20075;-57
2023/09/07 03:49:12;;;;;;;6.85;6.25;;;;;;;;;;5125109;27;20051;-58
2023/09/07 03:51:38;;;;;;;8.40;6.30;;;;;;;;;;5124544;27;20051;-57
2023/09/07 03:54:05;;;;;;;7.47;6.68;;;;;;;;;;5118791;27;20839;-56
2023/09/07 03:56:31;;;;;;;8.15;6.50;;;;;;;;;;5105037;28;20056;-56
2023/09/07 03:58:58;;;;;;;6.38;5.78;;;;;;;;;;5121886;27;20174;-56
2023/09/07 04:01:24;;;;;;;7.57;6.78;;;;;;;;;;5123693;27;20413;-58
2023/09/07 04:03:51;;;;;;;7.80;6.40;;;;;;;;;;5125144;27;20134;-57
2023/09/07 04:06:18;;;;;;;10.82;6.22;;;;;;;;;;5131068;27;20047;-58
2023/09/07 04:08:44;;;;;;;7.57;6.25;;;;;;;;;;5145570;27;20054;-56
2023/09/07 04:11:10;;;;;;;7.50;6.45;;;;;;;;;;5127054;27;20051;-57
2023/09/07 04:13:37;;;;;;;9.25;6.78;;;;;;;;;;5140872;27;20615;-59
2023/09/07 04:16:03;;;;;;;9.95;6.57;;;;;;;;;;5125202;27;20083;-57
2023/09/07 04:18:30;;;;;;;8.35;6.47;;;;;;;;;;5115840;27;20058;-57
2023/09/07 04:21:09;;;;;;;8.35;6.63;;;;;;;;;;5125581;27;20049;-57
2023/09/07 04:23:36;;;;;;;9.13;6.50;;;;;;;;;;5145400;27;20590;-57
2023/09/07 04:26:06;;;;;;;8.82;5.93;;;;;;;;;;5145928;27;20055;-59
2023/09/07 04:28:33;;;;;;;8.70;6.75;;;;;;;;;;5123416;27;20571;-56
2023/09/07 04:30:59;;;;;;;7.63;6.82;;;;;;;;;;5124086;27;20138;-58
2023/09/07 04:33:26;;;;;;;8.00;6.50;;;;;;;;;;5124117;27;20052;-57
2023/09/07 04:35:52;;;;;;;9.60;7.43;;;;;;;;;;5124359;27;20048;-59
2023/09/07 04:38:19;;;;;;;7.43;6.65;;;;;;;;;;5121218;27;20150;-58
2023/09/07 04:40:45;;;;;;;7.65;5.90;;;;;;;;;;5122024;27;20048;-57
2023/09/07 04:43:12;;;;;;;8.10;6.22;;;;;;;;;;5107419;27;20633;-52
2023/09/07 04:45:45;;;;;;;9.23;6.35;;;;;;;;;;5103902;28;20052;-56
2023/09/07 04:48:12;;;;;;;8.57;6.43;;;;;;;;;;5103724;28;20117;-57
2023/09/07 04:50:38;;;;;;;8.68;6.15;;;;;;;;;;5103613;28;20114;-57
2023/09/07 04:53:05;;;;;;;10.60;6.10;;;;;;;;;;5105803;27;20106;-56
2023/09/07 04:55:36;;;;;;;9.07;6.43;;;;;;;;;;5104445;28;20051;-58
2023/09/07 04:58:03;;;;;;;7.68;6.88;;;;;;;;;;5113199;27;20051;-53
2023/09/07 05:00:30;;;;;;;12.63;6.68;;;;;;;;;;5123289;27;20048;-57
2023/09/07 05:02:57;;;;;;;10.52;7.07;;;;;;;;;;5124861;27;20587;-56
2023/09/07 05:05:23;;;;;;;10.70;6.90;;;;;;;;;;5114468;27;20131;-56
2023/09/07 05:07:50;;;;;;;9.13;7.10;;;;;;;;;;5118596;27;20077;-57
2023/09/07 05:10:17;;;;;;;7.30;6.55;;;;;;;;;;5124192;27;20056;-58
2023/09/07 05:12:43;;;;;;;7.28;6.57;;;;;;;;;;5096130;27;20509;-59
2023/09/07 05:15:10;;;;;;;8.70;6.70;;;;;;;;;;5124753;27;20073;-59
2023/09/07 05:17:38;;;;;;;8.88;6.68;;;;;;;;;;5117341;27;20055;-54
2023/09/07 05:20:05;;;;;;;7.65;6.78;;;;;;;;;;5125275;27;20050;-56
2023/09/07 05:22:34;;;;;;;8.30;7.03;;;;;;;;;;5110435;27;20056;-56
2023/09/07 05:25:01;;;;;;;8.63;6.90;;;;;;;;;;5119123;27;20135;-57
2023/09/07 05:27:28;;;;;;;8.90;6.70;;;;;;;;;;5121773;27;20553;-58
2023/09/07 05:29:55;;;;;;;13.07;6.25;;;;;;;;;;5127255;27;20509;-58
2023/09/07 05:32:21;;;;;;;10.57;6.65;;;;;;;;;;5129668;27;20062;-58
2023/09/07 05:34:48;;;;;;;10.85;6.93;;;;;;;;;;5125401;27;20052;-57
2023/09/07 05:37:14;;;;;;;11.57;7.82;;;;;;;;;;5136615;27;20139;-58
2023/09/07 05:39:40;;;;;;;7.95;6.63;;;;;;;;;;5110165;27;20054;-58
2023/09/07 05:42:07;;;;;;;10.27;6.70;;;;;;;;;;5125239;27;20143;-57
2023/09/07 05:44:33;;;;;;;8.93;7.32;;;;;;;;;;5104144;27;20084;-59
2023/09/07 05:47:02;;;;;;;15.05;7.38;;;;;;;;;;5116009;27;20048;-59
2023/09/07 05:49:28;;;;;;;8.45;7.55;;;;;;;;;;5119020;27;20052;-58
2023/09/07 05:51:55;;;;;;;8.23;7.05;;;;;;;;;;5131889;27;20250;-57
2023/09/07 05:54:21;;;;;;;8.60;7.25;;;;;;;;;;5123016;27;20044;-56
2023/09/07 05:56:48;;;;;;;7.47;6.35;;;;;;;;;;5125784;27;20048;-58
2023/09/07 05:59:14;;;;;;;8.20;6.57;;;;;;;;;;5119396;27;20110;-59
2023/09/07 06:01:41;;;;;;;12.38;7.28;;;;;;;;;;5123321;27;20052;-57
2023/09/07 06:04:07;;;;;;;7.68;6.47;;;;;;;;;;5120946;27;20062;-55
2023/09/07 06:06:34;;;;;;;7.57;6.60;;;;;;;;;;5124933;27;20054;-57
2023/09/07 06:09:01;;;;;;;9.75;6.65;;;;;;;;;;5123418;27;20182;-58
2023/09/07 06:11:27;;;;;;;9.50;6.43;;;;;;;;;;5123795;27;20510;-58
2023/09/07 06:13:54;;;;;;;7.82;6.55;;;;;;;;;;5128563;27;20059;-57
2023/09/07 06:16:20;;;;;;;11.40;6.47;;;;;;;;;;5126186;27;20095;-59
2023/09/07 06:18:46;;;;;;;13.98;7.20;;;;;;;;;;5107520;27;20056;-58
2023/09/07 06:21:13;;;;;;;13.63;6.55;;;;;;;;;;5130240;27;20060;-57
2023/09/07 06:23:39;;;;;;;11.98;6.57;;;;;;;;;;5131743;27;20055;-59
2023/09/07 06:26:06;;;;;;;8.82;7.07;;;;;;;;;;5122811;27;20513;-58
2023/09/07 06:28:33;;;;;;;11.40;6.80;;;;;;;;;;5124700;27;20055;-56
2023/09/07 06:31:00;;;;;;;8.93;6.82;;;;;;;;;;5121503;27;20050;-58
2023/09/07 06:33:27;;;;;;;8.18;6.55;;;;;;;;;;5124419;27;20123;-58
2023/09/07 06:35:53;;;;;;;9.50;7.22;;;;;;;;;;5127973;27;20063;-58
2023/09/07 06:38:20;;;;;;;9.88;6.85;;;;;;;;;;5122220;27;20051;-58
2023/09/07 06:40:49;;;;;;;8.35;6.07;;;;;;;;;;5119528;27;20220;-56
2023/09/07 06:43:16;;;;;;;10.05;6.38;;;;;;;;;;5130340;27;20055;-59
2023/09/07 06:45:42;;;;;;;9.23;6.38;;;;;;;;;;5123419;27;20051;-59
2023/09/07 06:48:08;;;;;;;8.65;7.10;;;;;;;;;;5121539;27;20047;-57
2023/09/07 06:50:35;;;;;;;8.68;6.20;;;;;;;;;;5125541;27;20053;-58
2023/09/07 06:53:02;;;;;;;7.70;6.90;;;;;;;;;;5127955;27;20059;-58
2023/09/07 06:55:29;;;;;;;11.50;7.25;;;;;;;;;;5126610;27;20051;-60
2023/09/07 06:57:55;;;;;;;6.82;6.15;;;;;;;;;;5123684;27;20060;-59
2023/09/07 07:00:21;;;;;;;9.45;7.15;;;;;;;;;;5121176;27;20559;-58
2023/09/07 07:02:48;;;;;;;9.73;7.03;;;;;;;;;;5121625;27;20985;-58
2023/09/07 07:05:14;;;;;;;8.48;6.40;;;;;;;;;;5121824;27;20106;-56
2023/09/07 07:07:41;;;;;;;7.35;6.55;;;;;;;;;;5123241;27;20507;-58
2023/09/07 07:10:08;;;;;;;8.65;6.45;;;;;;;;;;5105076;27;20060;-59
2023/09/07 07:12:38;;;;;;;8.93;6.80;;;;;;;;;;5122058;27;20217;-60
2023/09/07 07:15:05;;;;;;;9.98;7.30;;;;;;;;;;5121276;27;20063;-56
2023/09/07 07:17:31;;;;;;;7.25;6.03;;;;;;;;;;5124811;27;20510;-58
2023/09/07 07:19:58;;;;;;;8.55;7.65;;;;;;;;;;5123573;27;20423;-56
2023/09/07 07:22:24;;;;;;;8.93;6.07;;;;;;;;;;5123252;27;20104;-57
2023/09/07 07:24:51;;;;;;;8.27;7.20;;;;;;;;;;5124847;27;20043;-57
2023/09/07 07:27:18;;;;;;;11.60;7.20;;;;;;;;;;5123295;27;20056;-59
2023/09/07 07:29:45;;;;;;;8.13;7.05;;;;;;;;;;5103945;27;20061;-56
2023/09/07 07:32:12;;;;;;;7.53;6.72;;;;;;;;;;5122968;27;20556;-57
2023/09/07 07:34:38;;;;;;;7.97;6.43;;;;;;;;;;5122821;27;20051;-53
2023/09/07 07:37:05;;;;;;;10.40;7.05;;;;;;;;;;5123782;27;20526;-56
2023/09/07 07:39:31;;;;;;;11.50;6.90;;;;;;;;;;5123519;27;20051;-58
2023/09/07 07:41:58;;;;;;;10.85;7.05;;;;;;;;;;5121469;27;20047;-58
2023/09/07 07:44:24;;;;;;;15.73;7.65;;;;;;;;;;5122780;27;20575;-58
2023/09/07 07:46:51;;;;;;;7.90;7.07;;;;;;;;;;5120055;27;20059;-56
2023/09/07 07:49:17;;;;;;;9.52;7.88;;;;;;;;;;5122752;27;20128;-58
2023/09/07 07:51:44;;;;;;;9.50;7.13;;;;;;;;;;5123338;27;20058;-56
2023/09/07 07:54:10;;;;;;;7.65;6.45;;;;;;;;;;5122542;27;20138;-58
2023/09/07 07:56:38;;;;;;;9.93;6.53;;;;;;;;;;5122673;27;20109;-58
2023/09/07 07:59:05;;;;;;;13.70;6.88;;;;;;;;;;5121052;27;20048;-54
2023/09/07 08:01:31;;;;;;;7.63;6.93;;;;;;;;;;5122778;27;20052;-57
2023/09/07 08:03:58;;;;;;;7.63;6.43;;;;;;;;;;5121891;27;20071;-58
2023/09/07 08:06:29;;;;;;;12.27;6.50;;;;;;;;;;5102148;27;20048;-58
2023/09/07 08:08:56;;;;;;;8.60;6.07;;;;;;;;;;5096059;27;20114;-58
2023/09/07 08:11:23;;;;;;;11.65;6.88;;;;;;;;;;5122943;27;20551;-58
2023/09/07 08:13:50;;;;;;;7.32;6.60;;;;;;;;;;5122088;27;20112;-57
2023/09/07 08:16:17;;;;;;;8.13;6.38;;;;;;;;;;5118952;27;20078;-57
2023/09/07 08:18:44;;;;;;;15.13;6.68;;;;;;;;;;5122604;27;20052;-57
2023/09/07 08:21:12;;;;;;;13.60;6.30;;;;;;;;;;5105033;27;20051;-56
2023/09/07 08:23:38;;;;;;;12.57;6.88;;;;;;;;;;5122180;27;20066;-57
2023/09/07 08:26:05;;;;;;;8.43;6.75;;;;;;;;;;5115027;27;20048;-54
2023/09/07 08:28:32;;;;;;;11.43;6.05;;;;;;;;;;5095868;27;20105;-57
2023/09/07 08:31:00;;;;;;;9.88;6.70;;;;;;;;;;5121427;27;20139;-58
2023/09/07 08:33:33;;;;;;;8.55;5.95;;;;;;;;;;5122924;27;20490;-58
2023/09/07 08:36:00;;;;;;;10.18;5.78;;;;;;;;;;5118483;27;20043;-58
2023/09/07 08:38:27;;;;;;;15.68;6.25;;;;;;;;;;5119908;27;20098;-56
2023/09/07 08:40:55;;;;;;;8.52;6.00;;;;;;;;;;5117095;27;20067;-58
2023/09/07 08:43:23;;;;;;;9.07;6.10;;;;;;;;;;5122845;27;20051;-58
2023/09/07 08:46:09;;;;;;;6.60;5.82;;;;;;;;;;5121778;27;20643;-58
2023/09/07 08:48:36;;;;;;;13.93;5.50;;;;;;;;;;5106307;27;20053;-57
2023/09/07 08:51:03;;;;;;;6.03;5.20;;;;;;;;;;5122550;27;20466;-57
2023/09/07 08:53:31;;;;;;;8.93;5.10;;;;;;;;;;5128156;27;20055;-57
2023/09/07 08:55:59;;;;;;;9.15;5.22;;;;;;;;;;5122439;27;20062;-57
2023/09/07 08:58:25;;;;;;;13.65;5.05;;;;;;;;;;5107302;27;20063;-58
2023/09/07 09:00:53;;;;;;;7.22;5.32;;;;;;;;;;5107354;27;20061;-57
2023/09/07 09:03:20;;;;;;;7.65;4.90;;;;;;;;;;5123670;27;20060;-58
2023/09/07 09:05:48;;;;;;;7.07;5.57;;;;;;;;;;5121774;27;20044;-57
2023/09/07 09:08:20;;;;;;;7.43;5.03;;;;;;;;;;5120925;27;20139;-57
2023/09/07 09:10:46;;;;;;;11.43;4.90;;;;;;;;;;5125487;27;20056;-56
2023/09/07 09:13:13;;;;;;;10.55;4.43;;;;;;;;;;5123938;27;20055;-56
2023/09/07 09:15:39;;;;;;;8.10;4.70;;;;;;;;;;5124179;27;20498;-59
2023/09/07 09:18:13;;;;;;;5.25;3.85;;;;;;;;;;5126208;27;20071;-57
2023/09/07 09:20:40;;;;;;;7.47;4.28;;;;;;;;;;5119544;27;20047;-57
2023/09/07 09:23:07;;;;;;;8.15;4.30;;;;;;;;;;5123650;27;20583;-57
2023/09/07 09:25:33;;;;;;;9.73;4.25;;;;;;;;;;5133384;27;20056;-57
2023/09/07 09:28:00;;;;;;;6.25;3.75;;;;;;;;;;5125497;27;20051;-58
2023/09/07 09:30:27;;;;;;;5.85;3.97;;;;;;;;;;5125637;27;20056;-57
2023/09/07 09:32:53;;;;;;;5.70;3.88;;;;;;;;;;5124010;27;20055;-58
2023/09/07 09:35:20;;;;;;;5.43;4.00;;;;;;;;;;5124361;27;20055;-57
2023/09/07 09:37:48;;;;;;;7.80;3.83;;;;;;;;;;5117089;27;20043;-58
2023/09/07 09:40:16;;;;;;;7.15;4.10;;;;;;;;;;5122990;27;20056;-58
2023/09/07 09:42:43;;;;;;;9.23;3.80;;;;;;;;;;5123394;27;20051;-56
2023/09/07 09:45:11;;;;;;;7.70;3.42;;;;;;;;;;5109951;27;20108;-58
2023/09/07 09:47:41;;;;;;;7.85;3.95;;;;;;;;;;5124778;27;20064;-56
2023/09/07 09:50:08;;;;;;;5.72;3.70;;;;;;;;;;5125475;27;20058;-57
2023/09/07 09:52:36;;;;;;;12.82;3.65;;;;;;;;;;5125365;27;20622;-38
2023/09/07 09:55:12;;;;;;;6.60;3.42;;;;;;;;;;5115769;27;20060;-58
2023/09/07 09:57:39;;;;;;;7.63;3.58;;;;;;;;;;5120245;27;20163;-56
2023/09/07 10:03:06;;;;;;;4.20;3.13;;;;;;;;;;5124724;27;20410;-56
2023/09/07 10:05:34;;;;;;;5.75;3.40;;;;;;;;;;5117170;27;20114;-59
2023/09/07 10:08:05;;;;;;;4.50;3.40;;;;;;;;;;5119191;27;20131;-58
2023/09/07 10:10:36;;;;;;;7.38;3.88;;;;;;;;;;5125079;27;20216;-58
2023/09/07 10:13:03;;;;;;;4.63;3.42;;;;;;;;;;5123823;27;20052;-56
2023/09/07 10:15:31;;;;;;;3.75;3.05;;;;;;;;;;5125847;27;20630;-58
2023/09/07 10:18:05;;;;;;;9.32;3.28;;;;;;;;;;5122940;27;20052;-57
2023/09/07 10:20:46;;;;;;;4.00;3.17;;;;;;;;;;5125272;27;20132;-56
2023/09/07 10:23:13;;;;;;;4.68;3.30;;;;;;;;;;5114768;27;20289;-57
2023/09/07 10:25:39;;;;;;;4.82;2.90;;;;;;;;;;5119193;27;20054;-57
2023/09/07 10:28:16;;;;;;;4.18;2.97;;;;;;;;;;5125146;27;20626;-58
2023/09/07 10:30:43;;;;;;;6.55;3.17;;;;;;;;;;5124307;27;20055;-58
2023/09/07 10:33:19;;;;;;;6.63;3.05;;;;;;;;;;5123167;27;20090;-57
2023/09/07 10:35:46;;;;;;;4.45;3.22;;;;;;;;;;5112253;27;20154;-57
2023/09/07 10:38:15;;;;;;;7.03;3.88;;;;;;;;;;5124572;27;20510;-58
2023/09/07 10:40:45;;;;;;;8.80;3.58;;;;;;;;;;5124671;27;20055;-55
2023/09/07 10:43:12;;;;;;;5.63;3.05;;;;;;;;;;5123932;27;20243;-58
2023/09/07 10:45:38;;;;;;;6.00;3.15;;;;;;;;;;5123731;27;20064;-58
2023/09/07 10:48:06;;;;;;;5.55;3.28;;;;;;;;;;5122098;27;20075;-58
2023/09/07 10:50:42;;;;;;;8.88;3.45;;;;;;;;;;5124475;27;20052;-58
2023/09/07 10:53:08;;;;;;;4.30;2.90;;;;;;;;;;5108372;27;20161;-59
2023/09/07 10:55:41;;;;;;;6.40;3.75;;;;;;;;;;5105722;27;20501;-56
2023/09/07 10:58:08;;;;;;;6.38;3.25;;;;;;;;;;5124354;27;20112;-58
2023/09/07 11:00:35;;;;;;;3.78;3.00;;;;;;;;;;5124374;27;20057;-58
2023/09/07 11:03:09;;;;;;;4.32;2.92;;;;;;;;;;5124170;27;20058;-58
2023/09/07 11:05:36;;;;;;;3.03;2.72;;;;;;;;;;5123029;27;20488;-57
2023/09/07 11:08:07;;;;;;;5.00;3.00;;;;;;;;;;5105631;27;20062;-58
2023/09/07 11:10:33;;;;;;;5.97;2.95;;;;;;;;;;5124336;27;20131;-58
2023/09/07 11:13:04;;;;;;;5.43;3.08;;;;;;;;;;5124290;27;20052;-57
2023/09/07 11:15:31;;;;;;;11.15;2.97;;;;;;;;;;5123254;27;20056;-59
2023/09/07 11:17:58;;;;;;;3.78;2.83;;;;;;;;;;5122227;27;20191;-57
2023/09/07 11:20:25;;;;;;;4.78;3.10;;;;;;;;;;5123320;27;20050;-56
2023/09/07 11:22:52;;;;;;;3.60;2.90;;;;;;;;;;5118639;27;20079;-58
2023/09/07 11:25:37;;;;;;;6.35;3.10;;;;;;;;;;5114693;27;20051;-57
2023/09/07 11:28:04;;;;;;;3.65;2.90;;;;;;;;;;5121770;27;20212;-58
2023/09/07 11:30:31;;;;;;;5.80;3.20;;;;;;;;;;5123253;27;20269;-58
2023/09/07 11:33:01;;;;;;;3.78;3.35;;;;;;;;;;5123817;27;20508;-58
2023/09/07 11:35:28;;;;;;;6.97;3.38;;;;;;;;;;5123334;27;20492;-57
2023/09/07 11:37:55;;;;;;;4.15;3.53;;;;;;;;;;5121955;27;20608;-57
2023/09/07 11:40:21;;;;;;;4.80;3.35;;;;;;;;;;5118125;27;20550;-58
2023/09/07 11:42:51;;;;;;;4.53;2.92;;;;;;;;;;5123120;27;20055;-58
2023/09/07 11:45:19;;;;;;;6.80;3.30;;;;;;;;;;5122966;27;20067;-57
2023/09/07 11:47:45;;;;;;;6.85;2.97;;;;;;;;;;5122833;27;20059;-56
2023/09/07 11:50:12;;;;;;;9.75;3.58;;;;;;;;;;5115482;27;20226;-57
2023/09/07 11:52:38;;;;;;;6.15;3.00;;;;;;;;;;5121051;27;20544;-58
2023/09/07 11:55:05;;;;;;;7.63;3.25;;;;;;;;;;5122300;27;20059;-58
2023/09/07 11:57:32;;;;;;;3.47;2.90;;;;;;;;;;5123207;27;20120;-54
2023/09/07 11:59:58;;;;;;;5.55;3.50;;;;;;;;;;5122889;27;20422;-58
2023/09/07 12:02:26;;;;;;;5.38;3.20;;;;;;;;;;5123238;27;20048;-57
2023/09/07 12:04:54;;;;;;;3.38;2.95;;;;;;;;;;5122785;27;20060;-58
2023/09/07 12:07:21;;;;;;;5.60;3.22;;;;;;;;;;5122993;27;20059;-58
2023/09/07 12:09:48;;;;;;;4.88;3.30;;;;;;;;;;5123387;27;20056;-55
2023/09/07 12:12:14;;;;;;;3.75;3.20;;;;;;;;;;5121959;27;20048;-59
2023/09/07 12:14:41;;;;;;;3.72;3.13;;;;;;;;;;5123070;27;20130;-58
2023/09/07 12:17:07;;;;;;;6.55;3.90;;;;;;;;;;5122434;27;20059;-58
2023/09/07 12:19:34;;;;;;;4.13;3.00;;;;;;;;;;5122705;27;20557;-58
2023/09/07 12:22:01;;;;;;;3.92;3.00;;;;;;;;;;5122626;27;20051;-58
2023/09/07 12:24:27;;;;;;;5.40;3.35;;;;;;;;;;5102247;27;20106;-58
2023/09/07 12:26:54;;;;;;;3.28;2.97;;;;;;;;;;5122707;27;20184;-58
2023/09/07 12:29:20;;;;;;;3.90;2.97;;;;;;;;;;5122747;27;20052;-58
2023/09/07 12:31:47;;;;;;;4.38;3.05;;;;;;;;;;5121946;27;20048;-58
2023/09/07 12:34:14;;;;;;;5.80;3.53;;;;;;;;;;5122712;27;20052;-58
2023/09/07 12:36:40;;;;;;;4.72;3.15;;;;;;;;;;5121913;27;20134;-57
2023/09/07 12:39:07;;;;;;;5.53;3.40;;;;;;;;;;5120471;27;20051;-60
2023/09/07 12:41:34;;;;;;;3.42;2.80;;;;;;;;;;5117059;27;20580;-57
2023/09/07 12:44:00;;;;;;;3.10;2.80;;;;;;;;;;5121761;27;20051;-58
2023/09/07 12:46:27;;;;;;;4.13;2.72;;;;;;;;;;5122615;27;20044;-58
2023/09/07 12:48:53;;;;;;;5.63;2.92;;;;;;;;;;5122501;27;20058;-58
2023/09/07 12:51:20;;;;;;;4.88;2.80;;;;;;;;;;5123056;27;20052;-57
2023/09/07 12:53:46;;;;;;;5.03;3.15;;;;;;;;;;5121105;27;20056;-59
2023/09/07 12:56:13;;;;;;;4.45;2.78;;;;;;;;;;5122024;27;20089;-58
2023/09/07 12:58:39;;;;;;;6.40;2.63;;;;;;;;;;5121563;27;20052;-57
2023/09/07 13:01:09;;;;;;;3.00;2.20;;;;;;;;;;5122157;27;20051;-58
2023/09/07 13:03:39;;;;;;;8.05;2.80;;;;;;;;;;5121740;27;20521;-57
2023/09/07 13:06:05;;;;;;;3.85;2.70;;;;;;;;;;5121396;27;20150;-57
2023/09/07 13:08:33;;;;;;;4.85;2.42;;;;;;;;;;5122869;27;20060;-56
2023/09/07 13:11:02;;;;;;;3.90;2.50;;;;;;;;;;5120631;27;20123;-57
2023/09/07 13:13:29;;;;;;;4.53;2.90;;;;;;;;;;5121347;27;20059;-58
2023/09/07 13:15:56;;;;;;;3.13;2.60;;;;;;;;;;5121534;27;20521;-56
2023/09/07 13:18:23;;;;;;;4.75;3.00;;;;;;;;;;5121250;27;20510;-57
2023/09/07 13:20:51;;;;;;;4.45;2.88;;;;;;;;;;5121495;27;20054;-58
2023/09/07 13:23:18;;;;;;;6.20;2.85;;;;;;;;;;5121426;27;20498;-56
2023/09/07 13:25:44;;;;;;;3.38;2.53;;;;;;;;;;5120887;27;20062;-57
2023/09/07 13:28:11;;;;;;;6.78;2.97;;;;;;;;;;5121790;27;20542;-57
2023/09/07 13:30:37;;;;;;;4.32;3.38;;;;;;;;;;5121393;27;20116;-57
2023/09/07 13:33:04;;;;;;;5.78;2.97;;;;;;;;;;5120613;27;20067;-58
2023/09/07 13:35:30;;;;;;;3.92;2.97;;;;;;;;;;5125354;27;20062;-57
2023/09/07 13:37:57;;;;;;;3.58;3.20;;;;;;;;;;5123467;27;20062;-58
2023/09/07 13:40:24;;;;;;;2.85;2.65;;;;;;;;;;5124771;27;20669;-58
2023/09/07 13:42:50;;;;;;;3.85;2.80;;;;;;;;;;5125047;27;20052;-58
2023/09/07 13:45:17;;;;;;;3.03;2.78;;;;;;;;;;5124317;27;20047;-58
2023/09/07 13:47:44;;;;;;;5.22;2.97;;;;;;;;;;5122988;27;20594;-57
2023/09/07 13:50:11;;;;;;;5.70;3.33;;;;;;;;;;5124614;27;20055;-58
2023/09/07 13:52:38;;;;;;;5.80;3.13;;;;;;;;;;5124889;27;20128;-58
2023/09/07 13:55:05;;;;;;;3.28;2.95;;;;;;;;;;5125717;27;20052;-57
2023/09/07 13:57:33;;;;;;;4.18;2.88;;;;;;;;;;5124346;27;20047;-57
2023/09/07 13:59:59;;;;;;;6.32;2.78;;;;;;;;;;5122731;27;20047;-56
2023/09/07 14:02:26;;;;;;;3.28;2.95;;;;;;;;;;5124934;27;20524;-57
2023/09/07 14:04:53;;;;;;;3.22;2.65;;;;;;;;;;5124453;27;20052;-58
2023/09/07 14:07:19;;;;;;;3.80;3.00;;;;;;;;;;5123179;27;20051;-55
2023/09/07 14:09:46;;;;;;;6.43;2.70;;;;;;;;;;5124909;27;20135;-57
2023/09/07 14:12:12;;;;;;;8.20;2.90;;;;;;;;;;5106571;27;20142;-55
2023/09/07 14:14:38;;;;;;;6.00;3.25;;;;;;;;;;5105930;27;20155;-58
2023/09/07 14:17:06;;;;;;;4.13;2.92;;;;;;;;;;5105703;27;20083;-56
2023/09/07 14:19:32;;;;;;;4.97;2.92;;;;;;;;;;5116946;27;20138;-55
2023/09/07 14:21:59;;;;;;;3.22;2.90;;;;;;;;;;5113544;27;20066;-57
2023/09/07 14:24:25;;;;;;;4.32;3.00;;;;;;;;;;5124358;27;20050;-58
2023/09/07 14:26:52;;;;;;;4.78;2.90;;;;;;;;;;5123561;27;20120;-58
2023/09/07 14:29:18;;;;;;;2.97;2.72;;;;;;;;;;5121902;27;20161;-56
2023/09/07 14:31:45;;;;;;;4.03;2.65;;;;;;;;;;5122509;27;20510;-57
2023/09/07 14:34:12;;;;;;;3.08;2.78;;;;;;;;;;5121685;27;20078;-57
2023/09/07 14:36:39;;;;;;;3.40;2.88;;;;;;;;;;5117989;27;20047;-58
2023/09/07 14:39:06;;;;;;;3.22;2.92;;;;;;;;;;5121986;27;20062;-57
2023/09/07 14:41:34;;;;;;;5.05;2.60;;;;;;;;;;5128580;27;20132;-56
2023/09/07 14:44:01;;;;;;;5.00;3.10;;;;;;;;;;5123980;27;20051;-57